• Join FlightAware (Why Join?)
  • Login
  • US Flag 
02:15AM EDT


 

Airport Tracker/Info


-or-


 

Live Flight TrackerFlight Track Log ✈ UCA4772 ✈ 27-Jan-2014 ✈ KCLE - KIND

Flight Track Log - Related Links

Times and Time Zones

All times are in EST time to prevent confusion due to time zone crossing. See the UCA4772 flight status page for this flight to view local times or setup timezone preferences in your user account.

Time Position Orientation Groundspeed Altitude Reporting Facility
EST Latitude Longitude Course Direction KTS MPH feet Rate Location/Type
07:53AM 41.3992 -81.8767 249° West 112 129 1,800  Level Cleveland Center
07:54AM 41.3883 -81.9028 241° Southwest 143 165 2,600 1,320 Climbing Cleveland Center
07:55AM 41.3733 -81.9439 244° Southwest 143 165 3,800 1,440 Climbing Cleveland Center
07:55AM 41.3686 -81.9581 246° West 172 198 4,100 1,620 Climbing Cleveland Center
07:56AM 41.3564 -82.0011 249° West 157 181 5,500 1,620 Climbing Cleveland Center
07:56AM 41.3528 -82.0139 249° West 172 198 5,800 1,500 Climbing Cleveland Center
07:57AM 41.3375 -82.0586 246° West 164 189 7,100 1,800 Climbing Cleveland Center
07:57AM 41.3303 -82.0744 239° Southwest 171 197 7,600 1,740 Climbing Cleveland Center
07:58AM 41.3049 -82.1408 249° West  Level FlightAware Approximate
07:58AM 41.3183 -82.1147 248° West 167 192 8,900  Level Cleveland Center
07:58AM 41.3125 -82.1300 243° Southwest 158 182 8,900 -540 Level Cleveland Center
07:59AM 41.2862 -82.2049 249° West  Level FlightAware Approximate
07:59AM 41.2953 -82.1842 247° West 170 196 8,400  Level Cleveland Center
08:00AM 41.2678 -82.2581 244° Southwest 211 243 8,000 -300 Descending Cleveland Center
08:01AM 41.2417 -82.3319 245° Southwest 216 249 7,900 -60 Descending Cleveland Center
08:02AM 41.2178 -82.4047 246° West 216 249 7,900  Level Cleveland Center
08:03AM 41.1947 -82.4750 246° West 210 242 8,000  Climbing Cleveland Center
08:04AM 41.1706 -82.5458 246° West 210 242 8,000  Level Cleveland Center
08:05AM 41.1467 -82.6164 246° West 209 241 8,000  Level Cleveland Center
08:06AM 41.1225 -82.6872 246° West 209 241 8,000  Level Cleveland Center
08:07AM 41.0956 -82.7561 243° Southwest 209 241 8,000  Level Cleveland Center
08:08AM 41.0486 -82.8275 229° Southwest 215 247 8,000  Level Cleveland Center
08:09AM 41.0103 -82.8892 231° Southwest 215 247 8,000  Level Cleveland Center
08:10AM 40.9725 -82.9528 232° Southwest 216 249 8,000  Level Cleveland Center
08:11AM 40.9336 -83.0142 230° Southwest 216 249 8,000  Level Cleveland Center
08:12AM 40.8961 -83.0744 231° Southwest 214 246 8,000  Level Cleveland Center
08:13AM 40.8592 -83.1347 231° Southwest 212 244 8,000  Level Cleveland Center
08:14AM 40.8186 -83.2000 231° Southwest 211 243 8,000  Level Cleveland Center
08:15AM 40.7811 -83.2606 231° Southwest 211 243 8,000 -60 Level Cleveland Center
08:16AM 40.7436 -83.3214 231° Southwest 213 245 7,900  Descending Cleveland Center
08:17AM 40.7047 -83.3828 230° Southwest 217 250 8,000  Climbing Indianapolis Center
08:18AM 40.6664 -83.4444 231° Southwest 218 251 8,000  Level Indianapolis Center
08:19AM 40.6283 -83.5056 231° Southwest 217 250 8,000  Level Indianapolis Center
08:20AM 40.6131 -83.5783 255° West 209 241 8,000  Level Indianapolis Center
08:21AM 40.5972 -83.6400 251° West 204 235 8,000  Level Indianapolis Center
08:21AM 40.5956 -83.6483 255° West 204 235 8,000  Level Indianapolis Center
08:22AM 40.5817 -83.7117 254° West 205 236 8,000  Level Indianapolis Center
08:22AM 40.5761 -83.7350 253° West 205 236 8,000  Level Indianapolis Center
08:23AM 40.5639 -83.7831 252° West 207 238 8,000 -120 Level Indianapolis Center
08:23AM 40.5597 -83.8072 257° West 207 238 7,900 -120 Descending Indianapolis Center
08:24AM 40.5461 -83.8544 249° West 208 239 7,900 60 Level Indianapolis Center
08:24AM 40.5425 -83.8803 260° West 209 241 8,000 60 Climbing Indianapolis Center
08:25AM 40.5275 -83.9339 250° West 211 243 8,000 -120 Level Indianapolis Center
08:25AM 40.5256 -83.9536 263° West 210 242 7,900 -120 Descending Indianapolis Center
08:26AM 40.5114 -84.0083 251° West 210 242 7,900  Level Indianapolis Center
08:26AM 40.5086 -84.0264 259° West 209 241 7,900  Level Indianapolis Center
08:27AM 40.4953 -84.0825 253° West 208 239 7,900  Level Indianapolis Center
08:27AM 40.4917 -84.0986 254° West 209 241 7,900  Level Indianapolis Center
08:28AM 40.4767 -84.1592 252° West 209 241 7,900  Level Indianapolis Center
08:29AM 40.4733 -84.1711 250° West 209 241 7,900  Level Indianapolis Center
08:29AM 40.4572 -84.2439 254° West 210 242 7,900 60 Level Indianapolis Center
08:30AM 40.4567 -84.2447 229° Southwest 210 242 8,000  Climbing Indianapolis Center
08:30AM 40.4394 -84.3122 251° West 214 246 7,900 -120 Descending Indianapolis Center
08:31AM 40.4358 -84.3342 258° West 213 245 7,900  Level Indianapolis Center
08:31AM 40.4233 -84.3864 253° West 209 241 7,900  Level Indianapolis Center
08:32AM 40.4194 -84.4064 256° West 210 242 7,900  Level Indianapolis Center
08:32AM 40.4050 -84.4575 250° West 209 241 7,900  Level Indianapolis Center
08:33AM 40.4011 -84.4794 257° West 211 243 7,900  Level Indianapolis Center
08:33AM 40.3886 -84.5314 252° West 214 246 7,900  Level Indianapolis Center
08:34AM 40.3839 -84.5533 254° West 212 244 7,900  Level Indianapolis Center
08:34AM 40.3703 -84.6050 251° West 213 245 7,900  Level Indianapolis Center
08:35AM 40.3661 -84.6267 256° West 213 245 7,900  Level Indianapolis Center
08:35AM 40.3536 -84.6792 253° West 211 243 7,900  Level Indianapolis Center
08:36AM 40.3492 -84.7000 254° West 211 243 7,900  Level Indianapolis Center
08:36AM 40.3319 -84.7631 250° West 214 246 7,900  Level Indianapolis Center
08:37AM 40.3311 -84.7733 264° West 212 244 7,900  Level Indianapolis Center
08:37AM 40.3186 -84.8267 253° West 215 247 7,900  Level Indianapolis Center
08:38AM 40.3133 -84.8486 253° West 215 247 7,900  Level Indianapolis Center
08:38AM 40.2961 -84.9131 251° West 216 249 7,900  Level Indianapolis Center
08:39AM 40.2933 -84.9272 256° West 216 249 7,900  Level Indianapolis Center
08:39AM 40.2800 -84.9817 252° West 215 247 7,900  Level Indianapolis Center
08:40AM 40.2758 -85.0014 255° West 215 247 7,900  Level Indianapolis Center
08:41AM 40.2542 -85.0894 252° West 213 245 7,900  Level Indianapolis Center
08:42AM 40.2361 -85.1636 252° West 214 246 7,900 -60 Level Indianapolis Center
08:43AM 40.2172 -85.2383 252° West 217 250 7,800  Descending Indianapolis Center
08:44AM 40.1994 -85.3131 253° West 217 250 7,900  Climbing Indianapolis Center
08:45AM 40.1803 -85.3869 251° West 216 249 7,900  Level Indianapolis Center
08:46AM 40.1617 -85.4617 252° West 217 250 7,900  Level Indianapolis Center
08:47AM 40.1442 -85.5372 253° West 218 251 7,900 -480 Level Indianapolis Center
08:48AM 40.0894 -85.5881 215° Southwest 243 280 7,000 -1,080 Descending Indianapolis Center
08:49AM 40.0233 -85.6458 214° Southwest 240 276 5,800 -1,020 Descending Indianapolis Center
08:50AM 39.9669 -85.6961 214° Southwest 242 278 5,000 -420 Descending Indianapolis Center
08:51AM 39.9106 -85.7453 214° Southwest 244 281 5,000  Level Indianapolis Center
08:52AM 39.8547 -85.7947 214° Southwest 244 281 5,000  Level Indianapolis Center
08:53AM 39.7983 -85.8428 213° Southwest 243 280 5,000  Level Indianapolis Center
08:54AM 39.7422 -85.8922 214° Southwest 243 280 5,000  Level Indianapolis Center
08:55AM 39.6856 -85.9406 213° Southwest 243 280 5,000 -480 Level Indianapolis Center
08:56AM 39.6317 -85.9942 217° Southwest 243 280 4,100 -960 Descending Indianapolis Center
08:57AM 39.6050 -86.0650 244° Southwest 227 261 3,100 -540 Descending Indianapolis Center
08:58AM 39.6242 -86.1300 291° West 202 232 3,000 -300 Descending Indianapolis Center
08:59AM 39.6631 -86.1956 308° West 194 223 2,600 -660 Descending Indianapolis Center
09:00AM 39.6914 -86.2328 315° West 167 192 1,700 -780 Descending Indianapolis Center
09:01AM 39.7078 -86.2544 315° West 117 135 1,100 -540 Descending Indianapolis Center
09:02AM 39.7247 -86.2764 315° West 95 109 700 -180 Descending Indianapolis Center
09:03AM 39.7258 -86.2825 283° West 57 66 800 60 Climbing Indianapolis Center